Time;durP1;ratioP1;P1;durP2;ratioP2;P2;SDS_P1;SDS_P2;PMS_P1;PMS_P2;Temp;Humidity;BMP_temperature;BMP_pressure;BME280_temperature;BME280_humidity;BME280_pressure;Samples;Min_cycle;Max_cycle;Signal;HPM_P1;HPM_P2
2021/10/02 00:44:40;;;;;;;19.92;10.77;;;12.20;96.50;;;;;;4994987;28;20034;-69
2021/10/02 00:47:11;;;;;;;18.83;10.52;;;12.10;96.70;;;;;;4994989;28;20018;-68
2021/10/02 00:49:39;;;;;;;21.08;10.20;;;12.20;96.80;;;;;;4994875;28;20030;-69
2021/10/02 00:52:10;;;;;;;17.00;10.30;;;12.20;97.50;;;;;;4993995;28;20042;-68
2021/10/02 00:54:36;;;;;;;17.80;10.20;;;12.10;97.40;;;;;;4994718;28;20026;-69
2021/10/02 00:57:03;;;;;;;19.50;10.48;;;12.10;97.90;;;;;;4994751;28;20038;-69
2021/10/02 00:59:31;;;;;;;14.82;9.60;;;12.00;97.90;;;;;;4994661;28;20530;-71
2021/10/02 01:02:19;;;;;;;19.60;10.32;;;12.00;98.40;;;;;;4994874;28;20353;-68
2021/10/02 01:04:57;;;;;;;17.63;10.07;;;12.00;98.20;;;;;;4993955;28;20034;-69
2021/10/02 01:07:46;;;;;;;21.42;10.43;;;11.90;98.30;;;;;;4994514;28;20454;-68
2021/10/02 01:10:39;;;;;;;15.20;10.20;;;11.80;98.40;;;;;;4977075;28;20065;-68
2021/10/02 01:13:33;;;;;;;15.38;10.60;;;11.70;98.60;;;;;;4994451;28;20022;-69
2021/10/02 01:16:20;;;;;;;15.80;10.45;;;11.70;98.90;;;;;;4994339;28;20125;-70
2021/10/02 01:19:04;;;;;;;16.10;10.20;;;11.60;99.40;;;;;;4994385;28;20038;-71
2021/10/02 01:22:09;;;;;;;17.42;10.40;;;11.60;99.80;;;;;;4976709;28;20045;-68
2021/10/02 01:24:59;;;;;;;23.88;9.80;;;11.60;99.80;;;;;;4926031;28;20089;-68
2021/10/02 01:28:03;;;;;;;12.07;9.55;;;11.50;99.80;;;;;;4994211;28;20089;-70
2021/10/02 01:30:53;;;;;;;25.52;10.13;;;11.50;99.80;;;;;;4993837;28;20046;-69
2021/10/02 01:33:46;;;;;;;18.67;10.55;;;11.50;99.70;;;;;;4994055;28;20522;-71
2021/10/02 01:36:32;;;;;;;16.73;9.88;;;11.40;99.80;;;;;;4993545;28;20120;-69
2021/10/02 01:47:24;;;;;;;14.30;9.85;;;11.30;99.90;;;;;;4993944;28;20041;-69
2021/10/02 01:49:55;;;;;;;20.60;10.82;;;11.30;99.90;;;;;;4976350;28;20460;-69
2021/10/02 01:52:31;;;;;;;16.45;10.18;;;11.30;99.90;;;;;;4993828;28;20030;-69
2021/10/02 01:54:58;;;;;;;14.18;10.05;;;11.30;99.90;;;;;;4993816;28;20045;-71
2021/10/02 01:57:27;;;;;;;18.25;10.27;;;11.20;99.90;;;;;;4976366;28;20053;-71
2021/10/02 01:59:56;;;;;;;14.98;10.25;;;11.20;99.90;;;;;;4993765;28;20050;-71
2021/10/02 02:02:26;;;;;;;19.15;10.23;;;11.20;99.90;;;;;;4976069;28;20026;-71
2021/10/02 02:04:54;;;;;;;19.63;10.60;;;11.20;99.90;;;;;;4993702;28;20019;-71
2021/10/02 02:07:22;;;;;;;15.77;10.00;;;11.10;99.90;;;;;;4993680;28;20026;-71
2021/10/02 02:09:49;;;;;;;17.92;9.75;;;;;;;;;;4993641;28;20022;-70
2021/10/02 02:12:17;;;;;;;16.73;11.05;;;;;;;;;;4993925;28;20101;-70
2021/10/02 02:14:44;;;;;;;19.58;10.27;;;;;;;;;;4976085;28;20058;-71
2021/10/02 02:17:12;;;;;;;19.23;9.82;;;;;;;;;;4993567;28;20022;-70
2021/10/02 02:19:39;;;;;;;13.40;10.70;;;;;;;;;;4993556;28;20022;-70
2021/10/02 02:22:05;;;;;;;13.80;10.15;;;;;;;;;;4993587;28;20357;-71
2021/10/02 02:24:33;;;;;;;14.10;8.95;;;;;;;;;;4993309;28;20054;-71
2021/10/02 02:26:59;;;;;;;14.63;9.25;;;;;;;;;;4993792;28;20029;-70
2021/10/02 02:29:26;;;;;;;12.35;9.35;;;;;;;;;;4976016;28;20034;-69
2021/10/02 02:31:53;;;;;;;26.23;9.80;;;;;;;;;;4993451;28;20029;-70
2021/10/02 02:34:19;;;;;;;13.95;9.70;;;;;;;;;;4993446;28;20367;-70
2021/10/02 02:36:45;;;;;;;16.13;10.05;;;;;;;;;;5007870;28;20767;-71
2021/10/02 02:39:11;;;;;;;19.90;10.57;;;;;;;;;;5012770;28;20022;-69
2021/10/02 02:41:37;;;;;;;13.88;10.13;;;;;;;;;;5011686;28;20516;-68
2021/10/02 02:44:04;;;;;;;18.55;10.68;;;;;;;;;;5012862;28;20018;-71
2021/10/02 02:46:36;;;;;;;18.88;10.43;;;;;;;;;;5012937;28;20029;-71
2021/10/02 02:49:02;;;;;;;;;;;;;;;;;;5013570;28;20406;-69
2021/10/02 02:51:36;;;;;;;17.50;10.57;;;;;;;;;;5011603;28;19948;-70
2021/10/02 02:54:15;;;;;;;14.88;10.20;;;;;;;;;;5012855;28;20080;-68
2021/10/02 02:56:44;;;;;;;18.17;10.35;;;;;;;;;;5012730;28;20037;-70
2021/10/02 02:59:19;;;;;;;16.13;10.48;;;;;;;;;;5012764;28;20022;-70
2021/10/02 03:01:47;;;;;;;15.93;9.60;;;;;;;;;;5012786;28;20022;-69
2021/10/02 03:04:29;;;;;;;16.80;10.75;;;;;;;;;;5013005;28;20104;-69
2021/10/02 03:06:56;;;;;;;18.77;10.85;;;;;;;;;;5012748;28;20101;-67
2021/10/02 03:09:22;;;;;;;15.88;10.85;;;;;;;;;;5011432;28;20125;-68
2021/10/02 03:11:50;;;;;;;19.38;10.25;;;;;;;;;;5012635;28;20076;-67
2021/10/02 03:14:19;;;;;;;16.55;10.27;;;;;;;;;;5012647;28;20545;-70
2021/10/02 03:16:46;;;;;;;21.83;9.75;;;;;;;;;;5015864;28;20471;-69
2021/10/02 03:19:13;;;;;;;16.05;10.25;;;;;;;;;;5014852;28;20180;-69
2021/10/02 03:21:40;;;;;;;16.63;9.93;;;;;;;;;;5016085;28;20026;-69
2021/10/02 03:24:07;;;;;;;20.55;10.60;;;;;;;;;;5015728;28;20026;-70
2021/10/02 03:26:33;;;;;;;19.38;11.25;;;;;;;;;;5016091;28;20068;-71
2021/10/02 03:29:00;;;;;;;13.90;10.10;;;;;;;;;;5015999;28;20056;-69
2021/10/02 03:31:27;;;;;;;21.25;10.45;;;;;;;;;;5014602;28;20498;-68
2021/10/02 03:33:54;;;;;;;15.27;10.27;;;;;;;;;;5015599;28;20060;-68
2021/10/02 03:36:20;;;;;;;14.07;9.57;;;;;;;;;;5001326;28;20413;-68
2021/10/02 03:38:46;;;;;;;19.20;9.98;;;;;;;;;;4978756;28;20432;-69
2021/10/02 03:41:13;;;;;;;16.30;10.35;;;;;;;;;;4996174;28;20014;-69
2021/10/02 03:43:39;;;;;;;17.80;11.20;;;;;;;;;;4978562;28;20169;-69
2021/10/02 03:46:06;;;;;;;20.75;12.27;;;;;;;;;;4978554;28;20474;-68
2021/10/02 03:48:32;;;;;;;16.58;11.10;;;;;;;;;;4996068;28;20018;-68
2021/10/02 03:50:58;;;;;;;18.02;11.05;;;;;;;;;;4996037;28;20030;-68
2021/10/02 03:53:28;;;;;;;20.42;11.27;;;;;;;;;;4995987;28;20096;-69
2021/10/02 03:55:58;;;;;;;22.75;11.35;;;;;;;;;;4978428;28;20371;-68
2021/10/02 03:58:24;;;;;;;17.42;10.98;;;;;;;;;;4995841;28;20058;-68
2021/10/02 04:00:51;;;;;;;21.05;12.23;;;;;;;;;;4995819;28;20462;-69
2021/10/02 04:03:17;;;;;;;27.38;12.13;;;;;;;;;;4978282;28;20030;-67
2021/10/02 04:05:43;;;;;;;20.30;11.80;;;;;;;;;;4995740;28;20060;-68
2021/10/02 04:08:18;;;;;;;20.20;11.82;;;;;;;;;;4995408;28;20368;-67
2021/10/02 04:10:44;;;;;;;24.13;11.95;;;;;;;;;;4978240;28;20030;-67
2021/10/02 04:13:11;;;;;;;15.93;9.65;;;;;;;;;;4978043;28;20364;-69
2021/10/02 04:15:39;;;;;;;19.00;11.75;;;;;;;;;;4995719;28;20030;-66
2021/10/02 04:18:05;;;;;;;17.63;11.77;;;;;;;;;;4995519;28;20026;-67
2021/10/02 04:20:32;;;;;;;22.20;11.75;;;;;;;;;;4977837;28;20033;-67
2021/10/02 04:22:58;;;;;;;18.02;11.05;;;;;;;;;;4995401;28;20022;-68
2021/10/02 04:25:24;;;;;;;17.00;10.75;;;;;;;;;;4995218;28;20165;-67
2021/10/02 04:27:52;;;;;;;20.13;10.95;;;;;;;;;;4995317;28;20025;-65
2021/10/02 04:30:18;;;;;;;19.48;11.73;;;;;;;;;;4995294;28;20029;-69
2021/10/02 04:32:44;;;;;;;17.88;10.98;;;;;;;;;;4995140;28;20104;-67
2021/10/02 04:35:10;;;;;;;21.02;12.10;;;;;;;;;;4995108;28;20057;-68
2021/10/02 04:37:37;;;;;;;17.73;10.27;;;;;;;;;;4977300;28;20027;-70
2021/10/02 04:40:04;;;;;;;18.60;10.20;;;;;;;;;;4995122;28;20041;-70
2021/10/02 04:42:30;;;;;;;21.05;10.57;;;;;;;;;;4995035;28;20058;-70
2021/10/02 04:44:56;;;;;;;20.50;10.85;;;;;;;;;;4977388;28;20026;-70
2021/10/02 04:47:24;;;;;;;16.80;10.25;;;;;;;;;;4995003;28;20114;-70
2021/10/02 04:49:53;;;;;;;19.75;11.88;;;;;;;;;;4994875;28;20106;-70
2021/10/02 04:52:21;;;;;;;17.65;11.15;;;;;;;;;;4977363;28;20026;-69
2021/10/02 04:54:47;;;;;;;21.48;12.10;;;;;;;;;;4977217;28;20023;-69
2021/10/02 04:57:13;;;;;;;21.52;13.63;;;;;;;;;;4994747;28;20034;-70
2021/10/02 04:59:40;;;;;;;22.95;13.20;;;;;;;;;;4994648;28;20033;-69
2021/10/02 05:02:06;;;;;;;24.08;12.63;;;;;;;;;;4994598;28;20096;-66
2021/10/02 05:04:32;;;;;;;24.63;14.55;;;;;;;;;;4994604;28;20135;-66
2021/10/02 05:06:58;;;;;;;29.70;15.27;;;;;;;;;;4994560;28;20030;-67
2021/10/02 05:09:24;;;;;;;22.27;13.40;;;;;;;;;;4994538;28;20018;-67
2021/10/02 05:11:51;;;;;;;19.45;12.45;;;;;;;;;;4994458;28;20033;-66
2021/10/02 05:14:17;;;;;;;24.90;15.60;;;;;;;;;;4976933;28;20023;-66
2021/10/02 05:16:43;;;;;;;27.05;16.15;;;;;;;;;;4994102;28;20121;-69
2021/10/02 05:19:09;;;;;;;19.55;12.57;;;;;;;;;;4976880;28;20022;-66
2021/10/02 05:21:35;;;;;;;24.02;14.07;;;;;;;;;;4994274;28;20113;-70
2021/10/02 05:24:02;;;;;;;24.65;15.20;;;;;;;;;;4994509;28;20069;-72
2021/10/02 05:26:28;;;;;;;30.88;17.73;;;;;;;;;;4994269;28;20026;-70
2021/10/02 05:28:54;;;;;;;30.05;15.82;;;;;;;;;;4994231;28;20030;-68
2021/10/02 05:31:21;;;;;;;32.47;17.83;;;;;;;;;;4994098;28;20030;-69
2021/10/02 05:33:47;;;;;;;26.23;15.35;;;;;;;;;;4994136;28;20061;-70
2021/10/02 05:36:15;;;;;;;39.20;23.75;;;;;;;;;;4993443;28;20054;-70
2021/10/02 05:38:41;;;;;;;36.40;19.80;;;;;;;;;;4993622;28;20471;-69
2021/10/02 05:41:07;;;;;;;39.22;28.15;;;;;;;;;;4994005;28;20026;-71
2021/10/02 05:43:33;;;;;;;27.88;18.25;;;;;;;;;;4976549;28;20415;-68
2021/10/02 05:45:59;;;;;;;23.35;16.08;;;;;;;;;;4976507;28;20149;-71
2021/10/02 05:48:26;;;;;;;30.70;20.58;;;;;;;;;;4993885;28;20022;-69
2021/10/02 05:50:52;;;;;;;30.70;18.90;;;;;;;;;;4976157;28;20023;-70
2021/10/02 05:53:18;;;;;;;44.45;29.40;;;;;;;;;;4993825;28;20027;-71
2021/10/02 05:55:44;;;;;;;40.85;27.48;;;;;;;;;;4976350;28;20069;-71
2021/10/02 05:58:10;;;;;;;50.88;37.05;;;;;;;;;;4993760;28;20026;-70
2021/10/02 06:00:37;;;;;;;70.13;49.17;;;;;;;;;;4993755;28;20127;-69
2021/10/02 06:03:03;;;;;;;82.78;56.72;;;;;;;;;;4976280;28;20033;-73
2021/10/02 06:05:29;;;;;;;67.40;45.92;;;;;;;;;;4976201;28;20352;-71
2021/10/02 06:07:56;;;;;;;53.47;35.97;;;11.50;99.90;;;;;;4976268;28;20145;-70
2021/10/02 06:10:23;;;;;;;58.20;35.25;;;11.50;99.90;;;;;;4993644;28;20038;-69
2021/10/02 06:12:52;;;;;;;39.45;25.30;;;11.50;99.90;;;;;;4993570;28;20379;-70
2021/10/02 06:15:18;;;;;;;30.42;21.45;;;11.60;99.90;;;;;;4976005;28;20035;-74
2021/10/02 06:17:44;;;;;;;26.98;17.25;;;11.60;99.90;;;;;;4993615;28;20101;-71
2021/10/02 06:20:10;;;;;;;21.17;14.15;;;11.70;99.90;;;;;;4993562;28;20030;-70
2021/10/02 06:22:36;;;;;;;23.13;13.90;;;11.80;99.90;;;;;;4993049;28;20027;-70
2021/10/02 06:25:04;;;;;;;22.40;12.90;;;11.90;99.90;;;;;;4993276;28;20041;-69
2021/10/02 06:27:32;;;;;;;21.95;14.40;;;11.90;99.90;;;;;;4975990;28;20125;-71
2021/10/02 06:29:58;;;;;;;21.00;14.35;;;12.00;99.90;;;;;;4993193;28;20531;-68
2021/10/02 06:32:25;;;;;;;23.08;14.05;;;12.10;99.90;;;;;;4993468;28;20091;-69
2021/10/02 06:34:51;;;;;;;24.45;14.20;;;12.20;99.90;;;;;;4993192;28;20062;-69
2021/10/02 06:37:16;;;;;;;21.25;13.50;;;12.30;99.90;;;;;;4993420;28;20066;-68
2021/10/02 06:39:42;;;;;;;22.52;14.10;;;12.40;99.90;;;;;;4993410;28;20501;-68
2021/10/02 06:42:08;;;;;;;24.30;15.50;;;12.50;99.90;;;;;;4993376;28;20106;-69
2021/10/02 06:44:34;;;;;;;25.35;16.60;;;12.60;99.90;;;;;;4993435;28;20026;-70
2021/10/02 06:47:00;;;;;;;21.00;15.50;;;12.60;99.90;;;;;;4993129;28;20112;-72
2021/10/02 06:49:28;;;;;;;26.13;14.95;;;12.80;99.90;;;;;;4993763;28;20077;-71
2021/10/02 06:51:54;;;;;;;17.45;11.45;;;13.00;99.90;;;;;;4997087;28;20030;-70
2021/10/02 06:54:20;;;;;;;23.42;11.40;;;13.10;99.90;;;;;;4997029;28;20598;-69
2021/10/02 06:56:46;;;;;;;18.55;10.27;;;13.20;99.90;;;;;;4996611;28;20042;-68
2021/10/02 06:59:12;;;;;;;16.27;8.88;;;13.30;99.70;;;;;;4979441;28;20026;-70
2021/10/02 07:01:38;;;;;;;13.27;7.55;;;13.50;99.90;;;;;;4979364;28;20022;-70
2021/10/02 07:04:04;;;;;;;11.15;7.03;;;13.60;99.90;;;;;;4979271;28;20471;-70
2021/10/02 07:06:30;;;;;;;15.38;8.15;;;13.70;98.40;;;;;;4996368;28;20537;-71
2021/10/02 07:08:56;;;;;;;13.25;7.30;;;13.80;96.80;;;;;;4996746;28;20042;-70
2021/10/02 07:11:21;;;;;;;12.95;7.65;;;13.90;98.30;;;;;;4996670;28;20034;-71
2021/10/02 07:13:47;;;;;;;11.98;7.28;;;14.10;96.00;;;;;;4979095;28;20027;-70
2021/10/02 07:16:13;;;;;;;10.85;6.95;;;14.10;94.90;;;;;;4979007;28;20038;-71
2021/10/02 07:18:39;;;;;;;10.75;7.10;;;14.20;95.40;;;;;;4979071;28;20423;-72
2021/10/02 07:21:05;;;;;;;12.88;8.38;;;14.30;94.30;;;;;;4979018;28;20030;-72
2021/10/02 07:23:32;;;;;;;14.20;7.05;;;14.40;93.80;;;;;;4996167;28;20046;-71
2021/10/02 07:25:59;;;;;;;9.35;6.20;;;14.50;94.00;;;;;;4978943;28;20121;-70
2021/10/02 07:28:25;;;;;;;16.00;7.20;;;14.60;92.70;;;;;;4996208;28;20033;-71
2021/10/02 07:30:51;;;;;;;10.70;6.75;;;14.70;92.30;;;;;;4996419;28;20030;-71
2021/10/02 07:33:17;;;;;;;11.85;6.53;;;14.80;92.50;;;;;;4978875;28;20092;-71
2021/10/02 07:35:43;;;;;;;9.23;6.07;;;14.80;92.50;;;;;;4995915;28;20054;-71
2021/10/02 07:38:09;;;;;;;10.15;6.45;;;15.00;91.50;;;;;;4978791;28;20244;-71
2021/10/02 07:40:38;;;;;;;14.68;6.63;;;15.10;91.20;;;;;;4978633;28;20463;-72
2021/10/02 07:43:04;;;;;;;11.57;6.15;;;15.20;90.70;;;;;;4978651;28;20509;-74
2021/10/02 07:45:31;;;;;;;11.77;6.45;;;15.30;90.40;;;;;;4996374;28;20066;-70
2021/10/02 07:47:58;;;;;;;13.20;6.97;;;;;;;;;;4978651;28;20031;-75
2021/10/02 07:50:24;;;;;;;15.70;7.40;;;;;;;;;;5011041;28;20072;-70
2021/10/02 07:52:54;;;;;;;7.90;5.75;;;15.30;90.10;;;;;;5008283;28;20030;-70
2021/10/02 07:55:21;;;;;;;9.13;6.70;;;15.60;89.10;;;;;;4995195;28;20046;-70
2021/10/02 07:57:47;;;;;;;17.27;9.05;;;15.80;90.50;;;;;;4995139;28;20022;-70
2021/10/02 08:00:15;;;;;;;14.90;8.02;;;;;;;;;;4995217;28;20019;-70
2021/10/02 08:02:45;;;;;;;17.40;10.20;;;;;;;;;;4977737;28;20501;-73
2021/10/02 08:05:12;;;;;;;21.58;12.60;;;;;;;;;;4994915;28;20038;-71
2021/10/02 08:07:42;;;;;;;11.95;7.90;;;;;;;;;;4977815;28;20033;-72
2021/10/02 08:10:10;;;;;;;14.93;8.05;;;;;;;;;;4977631;28;20028;-70
2021/10/02 08:12:36;;;;;;;18.25;10.32;;;;;;;;;;4995235;28;20022;-68
2021/10/02 08:15:02;;;;;;;15.45;8.00;;;16.00;89.40;;;;;;4995286;28;20031;-70
2021/10/02 08:17:30;;;;;;;17.05;7.97;;;16.80;85.90;;;;;;4995323;28;20026;-70
2021/10/02 08:20:00;;;;;;;16.73;7.53;;;16.90;85.80;;;;;;4977669;28;20030;-69
2021/10/02 08:22:26;;;;;;;13.48;6.82;;;;;;;;;;4977534;28;20125;-73
2021/10/02 08:24:53;;;;;;;13.32;7.47;;;17.10;84.00;;;;;;4995044;28;20092;-71
2021/10/02 08:27:22;;;;;;;18.60;6.97;;;17.40;82.90;;;;;;4995292;28;20109;-70
2021/10/02 08:29:49;;;;;;;11.52;6.38;;;17.60;82.60;;;;;;4977794;28;20391;-68
2021/10/02 08:32:16;;;;;;;8.18;6.13;;;17.70;81.60;;;;;;4995112;28;20058;-70
2021/10/02 08:34:42;;;;;;;12.40;6.57;;;17.90;81.30;;;;;;4994864;28;20502;-71
2021/10/02 08:37:07;;;;;;;8.35;5.53;;;18.00;81.10;;;;;;4994092;28;20066;-70
2021/10/02 08:39:33;;;;;;;14.02;7.25;;;18.20;80.50;;;;;;4995039;28;20054;-69
2021/10/02 08:42:00;;;;;;;13.93;6.82;;;18.30;81.80;;;;;;4994847;28;20041;-71
2021/10/02 08:44:28;;;;;;;11.63;6.15;;;;;;;;;;4994704;28;20067;-71
2021/10/02 08:46:54;;;;;;;20.65;7.07;;;18.50;79.80;;;;;;4977315;28;20030;-68
2021/10/02 08:49:46;;;;;;;15.18;8.15;;;18.70;78.00;;;;;;4994493;28;20034;-69
2021/10/02 08:52:15;;;;;;;12.25;7.05;;;18.80;78.70;;;;;;4994857;28;20026;-67
2021/10/02 08:54:43;;;;;;;14.13;6.65;;;19.00;78.40;;;;;;4994789;28;20042;-70
2021/10/02 08:57:12;;;;;;;8.90;5.57;;;19.10;74.60;;;;;;4977088;28;20042;-70
2021/10/02 08:59:39;;;;;;;14.05;6.63;;;19.20;76.50;;;;;;4994552;28;20027;-69
2021/10/02 09:02:09;;;;;;;14.45;6.15;;;19.30;77.00;;;;;;4976744;28;20368;-70
2021/10/02 09:04:36;;;;;;;11.18;5.78;;;19.50;74.90;;;;;;4993739;28;20395;-69
2021/10/02 09:07:04;;;;;;;11.40;6.38;;;19.60;75.80;;;;;;4993272;28;20030;-69
2021/10/02 09:09:31;;;;;;;9.18;6.25;;;19.70;74.30;;;;;;4993298;28;20610;-70
2021/10/02 09:11:57;;;;;;;12.15;6.18;;;19.90;74.90;;;;;;4993808;28;20057;-70
2021/10/02 09:14:23;;;;;;;12.32;6.28;;;19.90;73.50;;;;;;4993995;28;20474;-69
2021/10/02 09:16:49;;;;;;;15.10;6.15;;;19.90;72.60;;;;;;4993928;28;20034;-71
2021/10/02 09:19:15;;;;;;;10.55;5.93;;;20.00;71.90;;;;;;4994230;28;20526;-69
2021/10/02 09:21:53;;;;;;;7.28;5.47;;;20.20;72.70;;;;;;4976110;28;20030;-70
2021/10/02 09:24:26;;;;;;;9.35;5.50;;;20.30;71.80;;;;;;4994248;28;20060;-68
2021/10/02 09:26:53;;;;;;;13.63;6.15;;;20.60;72.50;;;;;;4994219;28;20034;-71
2021/10/02 09:29:37;;;;;;;15.23;5.90;;;20.70;71.00;;;;;;4994107;28;20030;-69
2021/10/02 09:32:05;;;;;;;9.85;6.50;;;20.80;70.50;;;;;;4976639;28;20026;-70
2021/10/02 09:34:31;;;;;;;8.48;5.80;;;20.90;70.20;;;;;;4976075;28;20038;-69
2021/10/02 09:36:56;;;;;;;12.35;6.15;;;21.10;69.50;;;;;;4994070;28;20169;-73
2021/10/02 09:39:41;;;;;;;12.73;5.28;;;21.10;68.00;;;;;;4993910;28;20101;-70
2021/10/02 09:42:20;;;;;;;11.95;5.63;;;21.30;68.50;;;;;;4993483;28;20034;-71
2021/10/02 09:44:46;;;;;;;11.20;4.95;;;21.60;68.50;;;;;;4976119;28;20030;-70
2021/10/02 09:47:17;;;;;;;10.57;5.22;;;21.60;67.80;;;;;;4993659;28;20368;-68
2021/10/02 09:49:48;;;;;;;7.75;4.82;;;21.80;67.30;;;;;;4993899;28;20027;-75
2021/10/02 09:52:28;;;;;;;7.15;4.80;;;21.90;65.70;;;;;;4993898;28;20030;-71
2021/10/02 09:54:55;;;;;;;17.55;9.00;;;;;;;;;;4993704;28;20030;-71
2021/10/02 09:57:21;;;;;;;13.27;6.07;;;22.00;65.60;;;;;;4993309;28;20019;-71
2021/10/02 09:59:47;;;;;;;9.18;5.20;;;22.30;64.20;;;;;;4993265;28;20022;-72
2021/10/02 10:02:25;;;;;;;10.77;4.55;;;22.50;64.70;;;;;;4993200;28;20505;-71
2021/10/02 10:04:55;;;;;;;11.57;5.18;;;22.80;63.40;;;;;;4993414;28;20026;-70
2021/10/02 10:07:23;;;;;;;8.85;4.63;;;22.90;64.70;;;;;;4975868;28;20440;-70
2021/10/02 10:10:19;;;;;;;6.60;4.63;;;23.20;63.20;;;;;;4992935;28;20030;-72
2021/10/02 10:12:45;;;;;;;8.35;4.32;;;23.60;62.90;;;;;;4934699;29;20134;-70
2021/10/02 10:15:30;;;;;;;7.57;4.35;;;;;;;;;;4936184;29;20035;-70
2021/10/02 10:17:57;;;;;;;11.40;4.28;;;24.90;59.60;;;;;;4952464;29;20096;-69
2021/10/02 10:20:32;;;;;;;7.30;3.70;;;25.10;60.10;;;;;;4952391;29;20145;-71
2021/10/02 10:23:00;;;;;;;9.68;3.90;;;25.60;59.20;;;;;;4951766;29;20050;-70
2021/10/02 10:25:26;;;;;;;7.65;4.20;;;26.20;57.10;;;;;;4955170;28;20247;-71
2021/10/02 10:27:52;;;;;;;9.25;3.90;;;26.50;55.30;;;;;;4956023;29;20031;-71
2021/10/02 10:30:23;;;;;;;10.50;3.83;;;26.80;56.90;;;;;;4956054;29;20039;-68
2021/10/02 10:33:09;;;;;;;7.93;4.53;;;27.80;55.20;;;;;;4956227;29;20042;-70
2021/10/02 10:35:53;;;;;;;10.70;3.97;;;28.30;55.10;;;;;;4971953;28;20057;-71
2021/10/02 10:38:24;;;;;;;9.10;4.03;;;28.60;53.20;;;;;;4994599;28;20035;-69
2021/10/02 10:40:52;;;;;;;12.55;4.38;;;29.10;51.10;;;;;;4994708;28;20137;-70
2021/10/02 10:43:19;;;;;;;9.60;4.10;;;30.20;50.80;;;;;;4994102;28;20483;-72
2021/10/02 10:45:45;;;;;;;6.53;4.30;;;30.30;49.40;;;;;;4994242;28;20165;-71
2021/10/02 10:48:12;;;;;;;10.98;4.65;;;30.90;48.60;;;;;;4997358;28;20109;-70
2021/10/02 10:50:42;;;;;;;7.38;4.20;;;31.20;47.20;;;;;;5016554;28;20026;-70
2021/10/02 10:53:08;;;;;;;6.57;4.55;;;31.60;47.80;;;;;;5015752;28;20030;-69
2021/10/02 10:55:49;;;;;;;6.70;3.70;;;31.90;48.40;;;;;;5016359;28;20065;-70
2021/10/02 10:58:35;;;;;;;9.82;3.88;;;32.50;46.80;;;;;;5013689;28;20613;-71
2021/10/02 11:01:02;;;;;;;9.32;4.35;;;;;;;;;;5014883;28;20553;-69
2021/10/02 11:03:44;;;;;;;11.95;4.30;;;;;;;;;;5015582;28;20022;-71
2021/10/02 11:06:12;;;;;;;8.20;3.85;;;33.20;45.40;;;;;;5014857;28;20057;-69
2021/10/02 11:08:55;;;;;;;6.40;4.07;;;34.20;44.20;;;;;;5014309;28;20026;-68
2021/10/02 11:11:44;;;;;;;7.13;4.18;;;34.70;43.80;;;;;;5015785;28;20462;-70
2021/10/02 11:14:14;;;;;;;10.10;3.95;;;35.20;42.70;;;;;;5016136;28;20034;-70
2021/10/02 11:16:43;;;;;;;6.07;3.70;;;35.10;41.30;;;;;;5016172;28;20038;-71
2021/10/02 11:19:33;;;;;;;10.68;4.00;;;35.30;42.20;;;;;;5016289;28;20267;-71
2021/10/02 11:25:17;;;;;;;11.38;3.85;;;36.30;41.70;;;;;;5002813;28;20173;-71
2021/10/02 11:27:42;;;;;;;9.15;4.28;;;36.70;40.90;;;;;;5015892;28;20117;-69
2021/10/02 11:30:14;;;;;;;7.90;3.70;;;36.80;39.30;;;;;;5014641;28;20061;-70
2021/10/02 11:32:40;;;;;;;13.38;3.97;;;37.00;39.70;;;;;;5015487;28;20445;-70
2021/10/02 11:35:17;;;;;;;10.88;4.43;;;37.10;39.40;;;;;;5010372;28;20448;-69
2021/10/02 11:38:07;;;;;;;10.55;3.42;;;37.10;39.00;;;;;;4978663;28;20027;-69
2021/10/02 11:40:36;;;;;;;10.05;3.50;;;36.90;39.70;;;;;;4995785;28;20026;-70
2021/10/02 11:43:21;;;;;;;10.15;3.90;;;37.30;39.30;;;;;;4996059;28;20030;-69
2021/10/02 11:45:47;;;;;;;10.48;4.25;;;37.00;39.40;;;;;;4996049;28;20022;-69
2021/10/02 11:48:14;;;;;;;5.53;3.05;;;;;;;;;;4995632;28;20030;-71
2021/10/02 11:50:41;;;;;;;6.63;4.10;;;;;;;;;;4996095;28;20041;-71
2021/10/02 11:53:07;;;;;;;7.07;3.53;;;38.10;38.60;;;;;;4978347;28;20027;-70
2021/10/02 11:55:36;;;;;;;5.80;3.55;;;38.20;38.20;;;;;;4978275;28;20387;-71
2021/10/02 11:58:07;;;;;;;7.18;3.47;;;38.10;38.40;;;;;;4995501;28;20387;-70
2021/10/02 12:00:45;;;;;;;6.45;3.85;;;38.10;38.30;;;;;;4978002;28;20065;-69
2021/10/02 12:03:19;;;;;;;5.80;3.75;;;38.40;38.10;;;;;;4996066;28;20093;-71
2021/10/02 12:05:47;;;;;;;7.55;3.90;;;38.10;37.90;;;;;;4994562;28;20034;-71
2021/10/02 12:08:14;;;;;;;7.20;3.60;;;38.10;38.30;;;;;;4976587;28;20042;-70
2021/10/02 12:10:56;;;;;;;3.50;3.17;;;38.70;38.10;;;;;;4993804;28;20034;-68
2021/10/02 12:13:28;;;;;;;5.03;3.47;;;38.70;36.90;;;;;;4994784;28;20093;-69
2021/10/02 12:16:07;;;;;;;8.65;4.25;;;39.00;37.20;;;;;;4977070;28;20044;-71
2021/10/02 12:18:44;;;;;;;5.10;3.40;;;39.10;37.10;;;;;;4995401;28;20030;-68
2021/10/02 12:21:34;;;;;;;6.32;4.13;;;39.10;37.40;;;;;;4995642;28;20042;-70
2021/10/02 12:24:20;;;;;;;6.25;3.85;;;39.10;36.60;;;;;;4995469;28;20042;-69
2021/10/02 12:26:53;;;;;;;5.32;4.10;;;39.00;37.00;;;;;;4995299;28;20030;-71
2021/10/02 12:29:35;;;;;;;7.32;3.67;;;39.40;37.20;;;;;;4995389;28;20069;-70
2021/10/02 12:32:07;;;;;;;6.13;3.40;;;39.50;36.50;;;;;;4995273;28;20026;-69
2021/10/02 12:34:41;;;;;;;5.53;3.72;;;39.50;36.90;;;;;;4977603;28;20034;-69
2021/10/02 12:37:22;;;;;;;6.07;3.60;;;39.70;36.90;;;;;;4995189;28;20153;-69
2021/10/02 12:39:54;;;;;;;7.50;3.58;;;39.70;36.10;;;;;;4995014;28;20026;-70
2021/10/02 12:42:32;;;;;;;6.45;4.43;;;39.70;36.50;;;;;;4995160;28;20034;-69
2021/10/02 12:44:59;;;;;;;5.38;3.72;;;39.90;36.60;;;;;;4995388;28;20089;-71
2021/10/02 12:47:27;;;;;;;8.93;4.10;;;39.80;36.50;;;;;;4993876;28;20099;-68
2021/10/02 12:49:57;;;;;;;10.25;4.30;;;39.60;35.90;;;;;;4995252;28;20479;-69
2021/10/02 12:52:23;;;;;;;4.70;3.37;;;40.00;36.00;;;;;;4994913;28;20061;-68
2021/10/02 12:54:52;;;;;;;8.70;4.32;;;40.00;36.50;;;;;;4993493;28;20142;-69
2021/10/02 12:57:34;;;;;;;5.40;4.07;;;40.10;36.10;;;;;;4994736;28;20475;-68
2021/10/02 13:00:17;;;;;;;8.18;4.28;;;40.40;36.30;;;;;;4994522;28;20129;-70
2021/10/02 13:02:44;;;;;;;11.75;4.30;;;40.60;35.70;;;;;;4994776;28;20121;-69
2021/10/02 13:05:11;;;;;;;6.72;3.78;;;40.70;35.80;;;;;;4994667;28;20034;-72
2021/10/02 13:07:40;;;;;;;9.80;5.05;;;40.50;35.50;;;;;;5026077;28;20030;-68
2021/10/02 13:10:11;;;;;;;8.82;4.05;;;40.30;35.80;;;;;;4994707;28;20057;-69
2021/10/02 13:12:43;;;;;;;7.10;4.50;;;;;;;;;;4994658;28;20026;-70
2021/10/02 13:15:40;;;;;;;8.23;4.07;;;34.40;39.60;;;;;;4994141;28;20031;-69
2021/10/02 13:18:18;;;;;;;7.40;5.15;;;32.30;43.60;;;;;;4992260;28;20042;-70
2021/10/02 13:20:47;;;;;;;9.68;5.22;;;30.40;43.90;;;;;;4993134;28;20053;-70
2021/10/02 13:23:19;;;;;;;9.88;5.28;;;29.90;45.30;;;;;;4994455;28;20030;-71
2021/10/02 13:25:57;;;;;;;8.80;4.72;;;29.80;45.70;;;;;;4994383;28;20038;-69
2021/10/02 13:28:25;;;;;;;4.03;3.63;;;;;;;;;;4994020;28;20360;-71
2021/10/02 13:30:52;;;;;;;5.82;3.60;;;30.30;44.80;;;;;;4994284;28;20022;-72
2021/10/02 13:33:19;;;;;;;6.05;3.70;;;28.80;46.10;;;;;;4993897;28;20509;-69
2021/10/02 13:35:52;;;;;;;8.82;5.10;;;29.40;44.70;;;;;;4995703;28;20046;-67
2021/10/02 13:38:30;;;;;;;5.47;3.95;;;30.40;45.00;;;;;;5013781;28;20030;-70
2021/10/02 13:40:58;;;;;;;5.32;3.42;;;;;;;;;;4995896;28;20080;-69
2021/10/02 13:43:24;;;;;;;9.02;5.35;;;28.60;45.60;;;;;;5013540;28;20105;-72
2021/10/02 13:45:52;;;;;;;9.35;5.90;;;28.30;47.30;;;;;;4995744;28;20120;-72
2021/10/02 13:48:29;;;;;;;6.78;4.45;;;27.40;49.60;;;;;;5013493;28;20076;-69
2021/10/02 13:50:56;;;;;;;7.10;6.13;;;26.60;50.30;;;;;;5013359;28;20033;-71
2021/10/02 13:53:22;;;;;;;10.13;5.90;;;26.00;52.30;;;;;;5013274;28;20109;-68
2021/10/02 13:55:49;;;;;;;7.45;5.53;;;25.50;52.60;;;;;;5013322;28;20113;-69
2021/10/02 13:58:15;;;;;;;7.47;5.25;;;25.20;52.90;;;;;;4995357;28;20041;-70
2021/10/02 14:00:41;;;;;;;10.30;5.00;;;25.10;53.20;;;;;;5013382;28;20030;-70
2021/10/02 14:03:07;;;;;;;4.65;3.63;;;24.90;53.00;;;;;;5013391;28;20083;-69
2021/10/02 14:05:33;;;;;;;5.72;4.28;;;24.60;52.40;;;;;;5013357;28;20462;-69
2021/10/02 14:08:02;;;;;;;6.25;4.53;;;24.40;53.30;;;;;;5013212;28;20030;-70
2021/10/02 14:10:29;;;;;;;9.77;3.97;;;24.30;54.80;;;;;;5013304;28;20029;-69
2021/10/02 14:12:56;;;;;;;7.13;3.75;;;24.00;54.00;;;;;;5013260;28;20096;-70
2021/10/02 14:15:21;;;;;;;12.18;4.72;;;23.90;54.20;;;;;;5013140;28;20470;-70
2021/10/02 14:17:47;;;;;;;7.35;4.85;;;23.80;55.60;;;;;;4995185;28;20069;-70
2021/10/02 14:20:14;;;;;;;9.02;4.53;;;23.70;56.20;;;;;;5013190;28;20040;-69
2021/10/02 14:22:40;;;;;;;11.10;4.70;;;23.50;56.10;;;;;;5013145;28;20374;-69